createdAt,value
2023-02-25T00:02:27.239Z,13.50
2023-02-25T00:06:31.388Z,10.10
2023-02-25T00:10:34.614Z,7.23
2023-02-25T00:14:37.719Z,11.27
2023-02-25T00:18:44.337Z,8.60
2023-02-25T00:22:49.207Z,13.23
2023-02-25T00:26:53.196Z,8.87
2023-02-25T00:30:56.357Z,6.63
2023-02-25T00:34:59.449Z,10.80
2023-02-25T00:39:03.933Z,11.57
2023-02-25T00:43:07.562Z,8.83
2023-02-25T00:47:10.611Z,12.47
2023-02-25T00:51:17.100Z,11.87
2023-02-25T00:55:21.680Z,11.53
2023-02-25T00:59:24.554Z,12.63
2023-02-25T01:03:27.573Z,12.67
2023-02-25T01:07:30.530Z,12.00
2023-02-25T01:11:37.104Z,10.77
2023-02-25T01:15:40.257Z,12.50
2023-02-25T01:19:43.189Z,10.93
2023-02-25T01:23:46.660Z,13.57
2023-02-25T01:27:51.166Z,8.43
2023-02-25T01:31:55.294Z,10.70
2023-02-25T01:36:02.828Z,14.17
2023-02-25T01:40:07.796Z,7.70
2023-02-25T01:44:15.169Z,12.07
2023-02-25T01:48:21.682Z,9.07
2023-02-25T01:52:26.890Z,9.33
2023-02-25T01:56:32.424Z,13.23
2023-02-25T02:00:37.781Z,13.37
2023-02-25T02:04:42.500Z,13.77
2023-02-25T02:08:45.993Z,14.00
2023-02-25T02:12:49.421Z,11.87
2023-02-25T02:17:17.034Z,12.47
2023-02-25T02:21:44.917Z,12.40
2023-02-25T02:26:26.944Z,12.47
2023-02-25T02:30:50.036Z,7.77
2023-02-25T02:35:05.320Z,13.17
2023-02-25T02:39:17.090Z,11.53
2023-02-25T02:43:31.844Z,14.00
2023-02-25T02:47:37.362Z,14.80
2023-02-25T02:51:51.705Z,10.10
2023-02-25T02:56:00.596Z,9.83
2023-02-25T03:00:17.470Z,12.40
2023-02-25T03:04:27.989Z,11.17
2023-02-25T03:08:37.132Z,12.87
2023-02-25T03:12:41.069Z,14.50
2023-02-25T03:16:50.584Z,15.87
2023-02-25T03:20:58.057Z,14.03
2023-02-25T03:25:10.957Z,23.63
2023-02-25T03:29:20.125Z,16.93
2023-02-25T03:33:30.818Z,11.93
2023-02-25T03:37:38.649Z,6.97
2023-02-25T03:41:46.663Z,12.10
2023-02-25T03:45:50.183Z,10.30
2023-02-25T03:49:59.409Z,10.80
2023-02-25T03:54:03.016Z,9.97
2023-02-25T03:58:11.026Z,15.13
2023-02-25T04:02:16.832Z,16.20
2023-02-25T04:06:23.238Z,11.93
2023-02-25T04:10:28.125Z,16.80
2023-02-25T04:14:32.651Z,14.57
2023-02-25T04:18:36.828Z,14.70
2023-02-25T04:22:41.458Z,12.27
2023-02-25T04:26:44.566Z,7.70
2023-02-25T04:30:49.066Z,14.70
2023-02-25T04:34:52.493Z,13.37
2023-02-25T04:38:56.685Z,15.90
2023-02-25T04:42:59.700Z,16.53
2023-02-25T04:47:04.347Z,19.37
2023-02-25T04:51:08.452Z,14.67
2023-02-25T04:55:11.838Z,13.53
2023-02-25T04:59:15.510Z,12.07
2023-02-25T05:03:19.969Z,15.33
2023-02-25T05:07:23.106Z,14.67
2023-02-25T05:11:27.423Z,16.57
2023-02-25T05:15:31.309Z,14.00
2023-02-25T05:19:36.024Z,14.43
2023-02-25T05:23:39.344Z,10.53
2023-02-25T05:27:42.443Z,17.13
2023-02-25T05:31:45.625Z,16.40
2023-02-25T05:35:50.492Z,16.07
2023-02-25T05:39:53.777Z,13.73
2023-02-25T05:43:58.217Z,13.83
2023-02-25T05:48:01.553Z,11.93
2023-02-25T05:52:05.802Z,12.90
2023-02-25T05:56:12.452Z,11.50
2023-02-25T06:00:21.380Z,9.53
2023-02-25T06:04:24.604Z,14.63
2023-02-25T06:08:28.810Z,11.73
2023-02-25T06:12:33.765Z,14.93
2023-02-25T06:16:39.531Z,11.53
2023-02-25T06:20:42.596Z,13.50
2023-02-25T06:24:47.400Z,11.93
2023-02-25T06:28:50.430Z,15.33
2023-02-25T06:32:53.528Z,11.97
2023-02-25T06:36:56.409Z,11.43
2023-02-25T06:41:07.349Z,9.90
2023-02-25T06:45:11.527Z,9.60
2023-02-25T06:49:14.587Z,8.43
2023-02-25T06:53:18.532Z,10.57
2023-02-25T06:57:23.817Z,9.27
2023-02-25T07:01:27.272Z,13.00
2023-02-25T07:05:30.399Z,9.60
2023-02-25T07:09:33.271Z,15.27
2023-02-25T07:13:37.807Z,12.13
2023-02-25T07:17:40.817Z,10.77
2023-02-25T07:21:44.307Z,13.10
2023-02-25T07:25:47.594Z,9.23
2023-02-25T07:29:52.100Z,8.10
2023-02-25T07:33:56.011Z,7.33
2023-02-25T07:37:58.874Z,4.37
2023-02-25T07:42:01.875Z,3.63
2023-02-25T07:46:06.977Z,3.70
2023-02-25T07:50:12.865Z,3.10
2023-02-25T07:54:17.194Z,3.87
2023-02-25T07:58:20.623Z,3.17
2023-02-25T08:02:25.140Z,6.00
2023-02-25T08:06:29.251Z,4.60
2023-02-25T08:10:32.624Z,2.50
2023-02-25T08:14:35.726Z,6.10
2023-02-25T08:18:42.670Z,4.90
2023-02-25T08:22:45.915Z,5.40
2023-02-25T08:26:49.006Z,5.70
2023-02-25T08:30:52.096Z,7.03
2023-02-25T08:34:57.009Z,2.60
2023-02-25T08:39:01.293Z,4.87
2023-02-25T08:43:04.391Z,4.67
2023-02-25T08:47:07.405Z,3.70
2023-02-25T08:51:14.611Z,6.43
2023-02-25T08:55:18.899Z,4.63
2023-02-25T08:59:22.404Z,4.53
2023-02-25T09:03:26.642Z,4.00
2023-02-25T09:07:32.054Z,4.40
2023-02-25T09:11:35.195Z,3.27
2023-02-25T09:15:38.134Z,5.33
2023-02-25T09:19:41.128Z,2.37
2023-02-25T09:23:46.723Z,8.23
2023-02-25T09:27:49.892Z,4.30
2023-02-25T09:31:54.045Z,5.70
2023-02-25T09:35:57.778Z,5.93
2023-02-25T09:40:02.755Z,3.23
2023-02-25T09:44:14.850Z,3.07
2023-02-25T09:48:21.817Z,3.20
2023-02-25T09:52:29.735Z,3.70
2023-02-25T09:56:34.217Z,6.20
2023-02-25T10:00:43.841Z,5.73
2023-02-25T10:04:56.500Z,5.70
2023-02-25T10:09:07.130Z,6.43
2023-02-25T10:13:25.256Z,6.60
2023-02-25T10:17:39.178Z,7.80
2023-02-25T10:22:14.619Z,5.13
2023-02-25T10:26:20.691Z,6.00
2023-02-25T10:30:31.379Z,4.93
2023-02-25T10:34:38.850Z,5.37
2023-02-25T10:38:45.338Z,10.23
2023-02-25T10:42:51.150Z,5.30
2023-02-25T10:47:00.208Z,8.27
2023-02-25T10:51:07.225Z,3.33
2023-02-25T10:55:27.608Z,5.83
2023-02-25T10:59:37.141Z,7.00
2023-02-25T11:03:48.951Z,5.77
2023-02-25T11:07:52.428Z,3.63
2023-02-25T11:11:59.051Z,5.43
2023-02-25T11:16:06.690Z,4.63
2023-02-25T11:20:23.495Z,4.77
2023-02-25T11:24:33.333Z,3.73
2023-02-25T11:28:41.863Z,6.00
2023-02-25T11:32:47.034Z,7.50
2023-02-25T11:36:52.561Z,5.63
2023-02-25T11:40:56.123Z,6.20
2023-02-25T11:45:03.785Z,3.40
2023-02-25T11:49:19.670Z,3.10
2023-02-25T11:53:36.094Z,2.67
2023-02-25T11:57:50.607Z,2.37
2023-02-25T12:02:16.850Z,4.50
2023-02-25T12:06:31.010Z,7.40
2023-02-25T12:11:25.220Z,3.90
2023-02-25T12:15:54.294Z,4.50
2023-02-25T12:20:27.360Z,2.57
2023-02-25T12:24:43.825Z,2.00
2023-02-25T12:29:06.362Z,2.33
2023-02-25T12:33:25.000Z,3.50
2023-02-25T12:37:42.712Z,2.73
2023-02-25T12:41:48.769Z,4.33
2023-02-25T12:46:17.893Z,4.63
2023-02-25T12:50:43.629Z,3.53
2023-02-25T12:55:28.370Z,3.43
2023-02-25T12:59:58.806Z,2.60
2023-02-25T13:04:29.719Z,2.73
2023-02-25T13:08:49.374Z,4.13
2023-02-25T13:13:12.760Z,3.47
2023-02-25T13:17:47.794Z,3.00
2023-02-25T13:22:04.291Z,2.43
2023-02-25T13:26:21.959Z,4.60
2023-02-25T13:30:42.080Z,4.00
2023-02-25T13:34:53.309Z,3.47
2023-02-25T13:39:16.423Z,1.70
2023-02-25T13:43:50.757Z,2.77
2023-02-25T13:48:08.506Z,4.13
2023-02-25T13:52:36.601Z,2.40
2023-02-25T13:57:01.325Z,3.07
2023-02-25T14:01:30.774Z,3.57
2023-02-25T14:05:59.657Z,2.57
2023-02-25T14:10:26.046Z,3.20
2023-02-25T14:14:45.186Z,4.17
2023-02-25T14:19:03.299Z,5.83
2023-02-25T14:23:11.770Z,3.90
2023-02-25T14:27:27.313Z,2.13
2023-02-25T14:31:39.775Z,3.50
2023-02-25T14:36:16.607Z,4.27
2023-02-25T14:40:31.067Z,2.17
2023-02-25T14:44:38.562Z,1.87
2023-02-25T14:48:48.452Z,2.57
2023-02-25T14:53:26.539Z,3.93
2023-02-25T14:58:02.978Z,5.50
2023-02-25T15:02:29.228Z,2.03
2023-02-25T15:06:58.144Z,3.43
2023-02-25T15:11:39.985Z,3.83
2023-02-25T15:16:26.305Z,3.00
2023-02-25T15:20:34.906Z,4.03
2023-02-25T15:24:40.256Z,2.67
2023-02-25T15:28:48.194Z,3.87
2023-02-25T15:32:57.661Z,3.97
2023-02-25T15:37:23.257Z,4.67
2023-02-25T15:41:42.448Z,3.17
2023-02-25T15:45:48.619Z,6.43
2023-02-25T15:49:52.603Z,7.17
2023-02-25T15:53:55.994Z,4.20
2023-02-25T15:57:59.085Z,2.37
2023-02-25T16:02:03.665Z,3.00
2023-02-25T16:06:11.919Z,4.70
2023-02-25T16:10:23.018Z,4.80
2023-02-25T16:14:29.915Z,2.47
2023-02-25T16:18:37.525Z,2.73
2023-02-25T16:22:44.723Z,2.30
2023-02-25T16:26:56.638Z,2.67
2023-02-25T16:31:08.163Z,6.50
2023-02-25T16:35:19.179Z,3.23
2023-02-25T16:39:24.337Z,6.97
2023-02-25T16:43:29.775Z,4.80
2023-02-25T16:47:37.337Z,5.93
2023-02-25T16:51:55.336Z,3.77
2023-02-25T16:56:00.038Z,7.67
2023-02-25T17:00:17.088Z,4.57
2023-02-25T17:04:24.793Z,3.10
2023-02-25T17:08:29.730Z,4.70
2023-02-25T17:12:37.192Z,6.23
2023-02-25T17:16:43.575Z,5.90
2023-02-25T17:20:47.164Z,6.07
2023-02-25T17:24:54.004Z,5.13
2023-02-25T17:29:00.294Z,3.53
2023-02-25T17:33:03.839Z,3.47
2023-02-25T17:37:09.427Z,3.60
2023-02-25T17:41:17.890Z,8.77
2023-02-25T17:45:42.306Z,12.87
2023-02-25T17:49:45.773Z,5.20
2023-02-25T17:53:51.210Z,5.17
2023-02-25T17:57:58.667Z,4.73
2023-02-25T18:02:03.670Z,5.97
2023-02-25T18:06:39.406Z,5.00
2023-02-25T18:10:51.958Z,3.53
2023-02-25T18:14:58.476Z,10.83
2023-02-25T18:19:01.649Z,6.13
2023-02-25T18:23:06.581Z,8.03
2023-02-25T18:27:29.320Z,4.97
2023-02-25T18:31:34.792Z,8.30
2023-02-25T18:35:40.813Z,4.80
2023-02-25T18:39:43.939Z,6.07
2023-02-25T18:43:47.000Z,4.07
2023-02-25T18:47:51.929Z,5.07
2023-02-25T18:51:54.825Z,4.33
2023-02-25T18:55:58.858Z,4.07
2023-02-25T19:00:02.482Z,3.47
2023-02-25T19:04:07.306Z,5.27
2023-02-25T19:08:13.349Z,3.87
2023-02-25T19:12:16.533Z,4.13
2023-02-25T19:16:20.642Z,3.70
2023-02-25T19:20:25.480Z,4.83
2023-02-25T19:24:28.920Z,3.30
2023-02-25T19:28:31.916Z,4.10
2023-02-25T19:32:34.954Z,5.10
2023-02-25T19:36:41.243Z,2.33
2023-02-25T19:40:45.132Z,3.10
2023-02-25T19:44:48.591Z,2.90
2023-02-25T19:48:51.501Z,2.93
2023-02-25T19:52:57.060Z,6.80
2023-02-25T19:57:00.567Z,4.03
2023-02-25T20:01:06.699Z,13.70
2023-02-25T20:05:11.406Z,7.53
2023-02-25T20:09:16.514Z,6.43
2023-02-25T20:13:19.648Z,6.80
2023-02-25T20:17:25.027Z,4.03
2023-02-25T20:21:28.670Z,6.27
2023-02-25T20:25:33.087Z,6.17
2023-02-25T20:29:36.253Z,9.10
2023-02-25T20:33:41.198Z,7.33
2023-02-25T20:37:53.972Z,7.33
2023-02-25T20:42:00.287Z,6.40
2023-02-25T20:46:04.353Z,5.13
2023-02-25T20:50:09.758Z,3.90
2023-02-25T20:54:13.977Z,4.03
2023-02-25T20:58:18.817Z,6.37
2023-02-25T21:02:22.378Z,6.53
2023-02-25T21:06:26.810Z,3.23
2023-02-25T21:10:36.890Z,4.10
2023-02-25T21:14:41.278Z,3.50
2023-02-25T21:18:44.650Z,4.23
2023-02-25T21:22:49.150Z,3.27
2023-02-25T21:26:52.284Z,4.33
2023-02-25T21:31:03.467Z,4.17
2023-02-25T21:35:07.154Z,5.27
2023-02-25T21:39:11.302Z,7.10
2023-02-25T21:43:14.796Z,4.00
2023-02-25T21:47:19.379Z,2.90
2023-02-25T21:51:24.268Z,4.03
2023-02-25T21:55:27.380Z,2.90
2023-02-25T21:59:32.523Z,4.93
2023-02-25T22:03:38.096Z,2.47
2023-02-25T22:07:40.919Z,7.57
2023-02-25T22:11:43.988Z,2.00
2023-02-25T22:15:48.343Z,4.10
2023-02-25T22:19:52.898Z,3.63
2023-02-25T22:23:58.519Z,2.70
2023-02-25T22:28:03.798Z,3.93
2023-02-25T22:32:07.930Z,5.53
2023-02-25T22:36:14.471Z,3.97
2023-02-25T22:40:17.572Z,6.33
2023-02-25T22:44:21.829Z,4.97
2023-02-25T22:48:25.515Z,4.33
2023-02-25T22:52:30.155Z,4.93
2023-02-25T22:56:33.670Z,4.13
2023-02-25T23:00:41.807Z,5.07
2023-02-25T23:04:44.732Z,3.80
2023-02-25T23:08:49.627Z,4.20
2023-02-25T23:12:52.564Z,3.50
2023-02-25T23:16:56.193Z,6.20
2023-02-25T23:20:59.731Z,3.77
2023-02-25T23:25:04.727Z,2.83
2023-02-25T23:29:09.866Z,2.20
2023-02-25T23:33:13.057Z,2.50
2023-02-25T23:37:16.376Z,2.27
2023-02-25T23:41:20.855Z,2.30
2023-02-25T23:45:24.042Z,3.20
2023-02-25T23:49:27.197Z,2.27
2023-02-25T23:53:30.484Z,3.63
2023-02-25T23:57:35.034Z,4.33
